createdAt,value
2023-02-26T00:00:39.437Z,7.10
2023-02-26T00:03:25.016Z,13.38
2023-02-26T00:06:12.136Z,15.48
2023-02-26T00:08:58.335Z,13.00
2023-02-26T00:11:44.474Z,14.20
2023-02-26T00:14:30.722Z,11.40
2023-02-26T00:20:12.169Z,12.65
2023-02-26T00:22:59.790Z,8.70
2023-02-26T00:25:46.365Z,13.40
2023-02-26T00:28:32.972Z,10.20
2023-02-26T00:39:57.868Z,10.10
2023-02-26T01:47:20.696Z,5.60
2023-02-26T01:50:14.978Z,7.40
2023-02-26T03:01:00.526Z,6.60
2023-02-26T03:06:38.141Z,2.75
2023-02-26T03:40:26.063Z,2.00
2023-02-26T03:43:18.803Z,6.40
2023-02-26T03:58:01.551Z,5.57
2023-02-26T04:01:03.887Z,10.10
2023-02-26T04:06:38.772Z,3.45
2023-02-26T04:09:25.089Z,5.18
2023-02-26T04:12:11.563Z,6.13
2023-02-26T04:15:02.601Z,3.50
2023-02-26T04:17:48.497Z,7.87
2023-02-26T04:23:21.013Z,4.80
2023-02-26T04:28:54.644Z,7.50
2023-02-26T04:48:19.076Z,2.60
2023-02-26T05:13:20.419Z,2.50
2023-02-26T05:16:06.982Z,1.70
2023-02-26T05:21:39.708Z,3.08
2023-02-26T05:38:23.568Z,4.85
2023-02-26T05:43:54.475Z,3.65
2023-02-26T05:46:40.696Z,1.80
2023-02-26T05:49:27.077Z,4.90
2023-02-26T05:52:12.773Z,4.68
2023-02-26T05:55:01.012Z,1.87
2023-02-26T05:57:46.518Z,1.33
2023-02-26T06:00:31.987Z,1.00
2023-02-26T06:03:17.685Z,2.87
2023-02-26T06:06:04.097Z,7.50
2023-02-26T06:08:49.719Z,2.17
2023-02-26T06:11:38.452Z,3.97
2023-02-26T06:19:55.582Z,5.00
2023-02-26T06:25:26.812Z,4.97
2023-02-26T06:28:14.195Z,6.30
2023-02-26T06:31:00.184Z,4.50
2023-02-26T06:39:16.838Z,4.60
2023-02-26T06:47:35.236Z,8.25
2023-02-26T06:58:38.699Z,6.40
2023-02-26T07:01:25.975Z,4.83
2023-02-26T07:04:11.693Z,3.03
2023-02-26T07:18:04.228Z,1.48
2023-02-26T07:23:36.556Z,5.60
2023-02-26T07:29:08.039Z,4.10
2023-02-26T07:34:40.853Z,6.10
2023-02-26T07:37:27.132Z,6.70
2023-02-26T07:42:58.608Z,4.70
2023-02-26T07:45:44.910Z,1.98
2023-02-26T08:07:52.240Z,1.85
2023-02-26T08:16:13.585Z,5.80
2023-02-26T08:32:50.999Z,3.60
2023-02-26T08:35:37.364Z,1.20
2023-02-26T08:43:56.179Z,2.00
2023-02-26T08:46:42.294Z,4.00
2023-02-26T08:52:14.270Z,3.20
2023-02-26T08:55:00.363Z,2.45
2023-02-26T08:57:47.853Z,2.72
2023-02-26T09:00:34.711Z,3.55
2023-02-26T09:11:37.692Z,3.58
2023-02-26T09:14:25.586Z,2.35
2023-02-26T09:17:11.295Z,4.80
2023-02-26T09:22:43.522Z,2.15
2023-02-26T09:33:48.571Z,4.85
2023-02-26T09:36:34.596Z,1.10
2023-02-26T09:39:20.517Z,1.00
2023-02-26T09:42:16.046Z,2.25
2023-02-26T09:45:02.920Z,0.98
2023-02-26T09:47:53.034Z,1.88
2023-02-26T09:50:43.539Z,3.22
2023-02-26T09:53:32.096Z,1.48
2023-02-26T09:56:23.655Z,1.02
2023-02-26T09:59:10.256Z,1.45
2023-02-26T10:02:00.348Z,3.80
2023-02-26T10:04:57.056Z,3.78
2023-02-26T10:07:49.621Z,1.40
2023-02-26T10:10:45.409Z,0.43
2023-02-26T10:13:40.469Z,2.00
2023-02-26T10:16:37.653Z,0.90
2023-02-26T10:19:29.011Z,1.85
2023-02-26T10:22:24.073Z,1.27
2023-02-26T10:25:15.148Z,3.67
2023-02-26T10:28:06.797Z,0.40
2023-02-26T10:30:58.055Z,2.88
2023-02-26T10:33:51.886Z,1.92
2023-02-26T10:36:44.845Z,3.22
2023-02-26T10:39:35.362Z,2.63
2023-02-26T10:42:26.167Z,3.33
2023-02-26T10:45:26.666Z,2.85
2023-02-26T10:48:36.934Z,3.05
2023-02-26T10:51:28.389Z,4.38
2023-02-26T10:54:20.330Z,2.03
2023-02-26T10:57:14.771Z,4.43
2023-02-26T11:00:01.060Z,1.13
2023-02-26T11:02:48.927Z,1.75
2023-02-26T11:05:35.376Z,1.23
2023-02-26T11:08:26.068Z,1.05
2023-02-26T11:11:32.012Z,1.65
2023-02-26T11:14:21.772Z,5.43
2023-02-26T11:17:12.459Z,2.42
2023-02-26T11:20:00.111Z,2.47
2023-02-26T11:22:48.377Z,1.67
2023-02-26T11:25:36.176Z,2.25
2023-02-26T11:28:26.437Z,1.90
2023-02-26T11:31:19.772Z,0.65
2023-02-26T11:34:08.928Z,0.30
2023-02-26T11:36:58.962Z,1.30
2023-02-26T11:39:45.189Z,1.63
2023-02-26T12:02:12.915Z,4.20
2023-02-26T12:07:48.744Z,1.65
2023-02-26T12:10:40.060Z,5.82
2023-02-26T12:13:33.512Z,3.28
2023-02-26T12:16:25.458Z,2.22
2023-02-26T12:19:17.658Z,2.88
2023-02-26T12:22:16.311Z,1.20
2023-02-26T12:25:32.994Z,0.80
2023-02-26T12:28:51.217Z,1.73
2023-02-26T12:32:16.147Z,1.58
2023-02-26T12:35:45.861Z,1.20
2023-02-26T12:38:43.191Z,0.73
2023-02-26T12:41:51.679Z,0.70
2023-02-26T12:45:06.727Z,0.52
2023-02-26T12:48:05.032Z,0.73
2023-02-26T12:51:01.446Z,0.80
2023-02-26T12:53:59.957Z,0.40
2023-02-26T12:57:09.518Z,0.70
2023-02-26T13:00:14.603Z,6.45
2023-02-26T13:03:45.512Z,0.40
2023-02-26T13:06:52.750Z,0.98
2023-02-26T13:09:50.754Z,3.38
2023-02-26T13:12:49.497Z,0.65
2023-02-26T13:15:57.671Z,0.63
2023-02-26T13:18:52.157Z,1.85
2023-02-26T13:21:43.631Z,2.08
2023-02-26T13:24:37.029Z,1.90
2023-02-26T13:27:27.969Z,3.63
2023-02-26T13:30:25.758Z,0.30
2023-02-26T13:33:18.042Z,0.63
2023-02-26T13:36:06.974Z,3.53
2023-02-26T13:39:12.757Z,0.82
2023-02-26T13:42:08.144Z,0.98
2023-02-26T13:45:07.813Z,4.97
2023-02-26T13:48:03.843Z,0.82
2023-02-26T13:50:59.017Z,0.75
2023-02-26T13:53:57.967Z,2.38
2023-02-26T13:56:49.741Z,0.50
2023-02-26T13:59:48.530Z,0.93
2023-02-26T14:02:54.829Z,1.42
2023-02-26T14:06:23.970Z,0.60
2023-02-26T14:09:35.719Z,0.63
2023-02-26T14:12:33.785Z,2.67
2023-02-26T14:15:29.034Z,2.63
2023-02-26T14:18:29.813Z,1.05
2023-02-26T14:21:37.351Z,1.15
2023-02-26T14:24:36.357Z,0.63
2023-02-26T14:27:32.529Z,2.97
2023-02-26T14:30:27.840Z,1.23
2023-02-26T14:33:17.326Z,2.05
2023-02-26T15:30:43.255Z,1.17
2023-02-26T15:33:30.016Z,0.30
2023-02-26T15:36:21.766Z,0.77
2023-02-26T15:39:09.339Z,0.30
2023-02-26T15:41:56.132Z,1.10
2023-02-26T15:44:56.440Z,0.40
2023-02-26T15:47:42.723Z,1.77
2023-02-26T15:50:31.935Z,0.30
2023-02-26T15:53:21.828Z,4.15
2023-02-26T15:56:12.552Z,3.78
2023-02-26T15:59:01.821Z,0.82
2023-02-26T16:01:50.306Z,2.25
2023-02-26T16:04:36.122Z,2.47
2023-02-26T16:07:22.519Z,3.65
2023-02-26T16:10:16.879Z,2.55
2023-02-26T16:13:02.979Z,1.77
2023-02-26T16:15:48.976Z,3.03
2023-02-26T16:18:37.651Z,1.55
2023-02-26T16:21:31.041Z,0.45
2023-02-26T16:24:20.755Z,0.70
2023-02-26T16:27:09.642Z,1.55
2023-02-26T16:29:57.979Z,2.58
2023-02-26T18:02:00.895Z,4.65
2023-02-26T18:04:47.050Z,4.22
2023-02-26T18:07:33.176Z,3.78
2023-02-26T18:10:23.184Z,2.80
2023-02-26T18:13:10.956Z,3.70
2023-02-26T18:16:01.036Z,5.25
2023-02-26T18:18:48.004Z,3.55
2023-02-26T18:21:33.727Z,4.65
2023-02-26T18:24:21.625Z,3.22
2023-02-26T18:27:13.539Z,4.85
2023-02-26T18:30:01.279Z,2.90
